Observation data for Morton on 06/19/2019      Previous  Date  Next       Current Mesonet Observations  Soil Data  Daily Summary Page  Observations in Plain Language
KMNS 190500Z 20013KT 21/15 A2993 RMK A01 T02140149  RH  069%=      5-min Rain = 0
KMNS 190505Z 20012KT 21/15 A2993 RMK A01 T02130149  RH  070%=      5-min Rain = 0
KMNS 190510Z 19012KT 21/15 A2993 RMK A01 T02110150  RH  071%=      5-min Rain = 0
KMNS 190515Z 20012KT 21/15 A2993 RMK A01 T02110147  RH  070%=      5-min Rain = 0
KMNS 190520Z 20010KT 21/14 A2993 RMK A01 T02140143  RH  067%=      5-min Rain = 0
KMNS 190525Z 21012KT 22/13 A2993 RMK A01 T02210132  RH  059%=      5-min Rain = 0
KMNS 190530Z 21014KT 22/13 A2993 RMK A01 T02240125  RH  056%=      5-min Rain = 0
KMNS 190535Z 21014KT 23/11 A2993 RMK A01 T02300114  RH  050%=      5-min Rain = 0
KMNS 190540Z 21013KT 23/12 A2993 RMK A01 T02270116  RH  051%=      5-min Rain = 0
KMNS 190545Z 21012KT 22/12 A2993 RMK A01 T02220117  RH  053%=      5-min Rain = 0
KMNS 190550Z 21012KT 22/12 A2993 RMK A01 T02180118  RH  055%=      5-min Rain = 0
KMNS 190555Z 21013KT 22/12 A2993 RMK A01 T02200117  RH  054%=      5-min Rain = 0
KMNS 190600Z 21014KT 22/12 A2992 RMK A01 T02210117  RH  054%=      5-min Rain = 0
KMNS 190605Z 21013KT 22/12 A2992 RMK A01 T02200118  RH  054%=      5-min Rain = 0
KMNS 190610Z 20013KT 22/12 A2992 RMK A01 T02160121  RH  057%=      5-min Rain = 0
KMNS 190615Z 20013KT 21/13 A2992 RMK A01 T02100126  RH  061%=      5-min Rain = 0
KMNS 190620Z 20013KT 20/13 A2992 RMK A01 T02040130  RH  065%=      5-min Rain = 0
KMNS 190625Z 20014KT 20/13 A2992 RMK A01 T02040129  RH  064%=      5-min Rain = 0
KMNS 190630Z 20014KT 21/13 A2992 RMK A01 T02050128  RH  064%=      5-min Rain = 0
KMNS 190635Z 21013KT 21/13 A2992 RMK A01 T02050126  RH  063%=      5-min Rain = 0
KMNS 190640Z 20016G22KT 21/12 A2992 RMK A01 T02110122  RH  059%=      5-min Rain = 0
KMNS 190645Z 20017KT 21/12 A2991 RMK A01 T02140119  RH  057%=      5-min Rain = 0
KMNS 190650Z 20017KT 21/12 A2991 RMK A01 T02130119  RH  057%=      5-min Rain = 0
KMNS 190655Z 20016KT 21/12 A2991 RMK A01 T02140118  RH  056%=      5-min Rain = 0
KMNS 190700Z 20014KT 21/12 A2991 RMK A01 T02130118  RH  056%=      5-min Rain = 0
KMNS 190705Z 20014KT 21/12 A2991 RMK A01 T02110118  RH  058%=      5-min Rain = 0
KMNS 190710Z 20011G16KT 21/12 A2991 RMK A01 T02080119  RH  059%=      5-min Rain = 0
KMNS 190715Z 19015KT 21/12 A2991 RMK A01 T02080117  RH  058%=      5-min Rain = 0
KMNS 190720Z 18013G18KT 21/12 A2991 RMK A01 T02060117  RH  059%=      5-min Rain = 0
KMNS 190725Z 18012G17KT 21/12 A2991 RMK A01 T02060116  RH  058%=      5-min Rain = 0
KMNS 190730Z 19012KT 20/12 A2991 RMK A01 T02040116  RH  059%=      5-min Rain = 0
KMNS 190735Z 19014G19KT 20/12 A299 RMK A01 T02020116  RH  060%=      5-min Rain = 0
KMNS 190740Z 19014KT 20/12 A299 RMK A01 T02010116  RH  060%=      5-min Rain = 0
KMNS 190745Z 19013KT 20/12 A299 RMK A01 T02000117  RH  061%=      5-min Rain = 0
KMNS 190750Z 19013KT 20/12 A299 RMK A01 T01990116  RH  061%=      5-min Rain = 0
KMNS 190755Z 19012KT 20/12 A299 RMK A01 T01990116  RH  061%=      5-min Rain = 0
KMNS 190800Z 19012KT 20/12 A299 RMK A01 T01950117  RH  063%=      5-min Rain = 0
KMNS 190805Z 19011KT 19/12 A299 RMK A01 T01940117  RH  063%=      5-min Rain = 0
KMNS 190810Z 19012KT 20/12 A299 RMK A01 T01950115  RH  062%=      5-min Rain = 0
KMNS 190815Z 19010KT 19/12 A299 RMK A01 T01930116  RH  063%=      5-min Rain = 0
KMNS 190820Z 20008KT 19/12 A299 RMK A01 T01930116  RH  063%=      5-min Rain = 0
KMNS 190825Z 22005G10KT 19/12 A2991 RMK A01 T01920116  RH  064%=      5-min Rain = 0
KMNS 190830Z 34014G19KT 19/12 A2992 RMK A01 T01920121  RH  066%=      5-min Rain = 0
KMNS 190835Z 25012G21KT 20/11 A2993 RMK A01 T01990114  RH  060%=      5-min Rain = 0
KMNS 190840Z 19010G21KT 22/10 A2992 RMK A01 T02230099  RH  047%=      5-min Rain = 0
KMNS 190845Z 35012KT 21/11 A2994 RMK A01 T02090113  RH  056%=      5-min Rain = 0
KMNS 190850Z 30010G15KT 21/11 A2994 RMK A01 T02120109  RH  054%=      5-min Rain = 0
KMNS 190855Z 22012G18KT 22/10 A2992 RMK A01 T02230102  RH  048%=      5-min Rain = 0
KMNS 190900Z 20011G16KT 22/11 A2992 RMK A01 T02200105  RH  050%=      5-min Rain = 0
KMNS 190905Z 28006G11KT 22/11 A2994 RMK A01 T02150108  RH  052%=      5-min Rain = 0
KMNS 190910Z 00010KT 20/12 A2995 RMK A01 T02020119  RH  061%=      5-min Rain = 0
KMNS 190915Z 04004KT 20/12 A2994 RMK A01 T02030119  RH  061%=      5-min Rain = 0
KMNS 190920Z 16006KT 20/12 A2993 RMK A01 T01960120  RH  064%=      5-min Rain = 0
KMNS 190925Z 20003KT 20/12 A2994 RMK A01 T01990117  RH  061%=      5-min Rain = 0
KMNS 190930Z 20004KT 20/12 A2994 RMK A01 T01980120  RH  063%=      5-min Rain = 0
KMNS 190935Z 17004KT 19/12 A2993 RMK A01 T01910121  RH  066%=      5-min Rain = 0
KMNS 190940Z 17004KT 19/12 A2994 RMK A01 T01910119  RH  066%=      5-min Rain = 0
KMNS 190945Z 17006KT 19/12 A2994 RMK A01 T01910117  RH  065%=      5-min Rain = 0
KMNS 190950Z 18006KT 19/12 A2993 RMK A01 T01940115  RH  063%=      5-min Rain = 0
KMNS 190955Z 19006KT 19/12 A2993 RMK A01 T01920116  RH  064%=      5-min Rain = 0
KMNS 191000Z 21006KT 19/12 A2993 RMK A01 T01850123  RH  070%=      5-min Rain = 0
KMNS 191005Z 22005KT 18/13 A2993 RMK A01 T01820126  RH  073%=      5-min Rain = 0
KMNS 191010Z 23004KT 18/13 A2994 RMK A01 T01790128  RH  075%=      5-min Rain = 0
KMNS 191015Z 21007KT 18/13 A2993 RMK A01 T01790126  RH  074%=      5-min Rain = 0
KMNS 191020Z 20005KT 18/12 A2993 RMK A01 T01800123  RH  072%=      5-min Rain = 0
KMNS 191025Z 19004KT 18/12 A2993 RMK A01 T01800123  RH  072%=      5-min Rain = 0
KMNS 191030Z 16004KT 18/12 A2993 RMK A01 T01790123  RH  072%=      5-min Rain = 0
KMNS 191035Z 16004KT 18/13 A2993 RMK A01 T01790125  RH  073%=      5-min Rain = 0
KMNS 191040Z 18007KT 18/12 A2993 RMK A01 T01810124  RH  072%=      5-min Rain = 0
KMNS 191045Z 19008KT 18/12 A2992 RMK A01 T01820124  RH  072%=      5-min Rain = 0
KMNS 191050Z 22007KT 18/13 A2993 RMK A01 T01790126  RH  074%=      5-min Rain = 0
KMNS 191055Z 22006KT 18/13 A2993 RMK A01 T01790126  RH  074%=      5-min Rain = 0
KMNS 191100Z 22006KT 18/13 A2993 RMK A01 T01780125  RH  074%=      5-min Rain = 0
KMNS 191105Z 24007KT 18/12 A2993 RMK A01 T01810124  RH  072%=      5-min Rain = 0
KMNS 191110Z 23007KT 18/12 A2993 RMK A01 T01840121  RH  069%=      5-min Rain = 0
KMNS 191115Z 24007KT 19/12 A2993 RMK A01 T01870121  RH  068%=      5-min Rain = 0
KMNS 191120Z 24008KT 18/12 A2993 RMK A01 T01840121  RH  069%=      5-min Rain = 0
KMNS 191125Z 24009KT 19/12 A2993 RMK A01 T01860121  RH  069%=      5-min Rain = 0
KMNS 191130Z 24009KT 19/12 A2993 RMK A01 T01860122  RH  069%=      5-min Rain = 0
KMNS 191135Z 23008KT 19/12 A2993 RMK A01 T01850123  RH  070%=      5-min Rain = 0
KMNS 191140Z 23008KT 19/12 A2993 RMK A01 T01860122  RH  069%=      5-min Rain = 0
KMNS 191145Z 23007KT 19/12 A2993 RMK A01 T01850122  RH  069%=      5-min Rain = 0
KMNS 191150Z 22007KT 18/12 A2993 RMK A01 T01840122  RH  070%=      5-min Rain = 0
KMNS 191155Z 22007KT 18/12 A2993 RMK A01 T01830122  RH  070%=      5-min Rain = 0
KMNS 191200Z 23008KT 18/12 A2993 RMK A01 T01840121  RH  070%=      5-min Rain = 0
KMNS 191205Z 23009KT 19/12 A2993 RMK A01 T01850121  RH  069%=      5-min Rain = 0
KMNS 191210Z 22009KT 19/12 A2993 RMK A01 T01860121  RH  069%=      5-min Rain = 0
KMNS 191215Z 22007KT 19/12 A2993 RMK A01 T01870121  RH  068%=      5-min Rain = 0
KMNS 191220Z 22007KT 19/12 A2993 RMK A01 T01880121  RH  068%=      5-min Rain = 0
KMNS 191225Z 23007KT 19/12 A2993 RMK A01 T01890122  RH  068%=      5-min Rain = 0
KMNS 191230Z 22007KT 19/12 A2993 RMK A01 T01890122  RH  067%=      5-min Rain = 0
KMNS 191235Z 21006KT 19/12 A2993 RMK A01 T01910123  RH  067%=      5-min Rain = 0
KMNS 191240Z 22006KT 19/12 A2993 RMK A01 T01920124  RH  067%=      5-min Rain = 0
KMNS 191245Z 23006KT 19/12 A2993 RMK A01 T01940124  RH  066%=      5-min Rain = 0
KMNS 191250Z 23007KT 20/12 A2993 RMK A01 T01960124  RH  066%=      5-min Rain = 0
KMNS 191255Z 22007KT 20/12 A2993 RMK A01 T01970124  RH  065%=      5-min Rain = 0
KMNS 191300Z 22007KT 20/12 A2993 RMK A01 T02000124  RH  064%=      5-min Rain = 0
KMNS 191305Z 22007KT 20/12 A2993 RMK A01 T02020124  RH  063%=      5-min Rain = 0
KMNS 191310Z 23008KT 20/13 A2992 RMK A01 T02040125  RH  063%=      5-min Rain = 0
KMNS 191315Z 23007KT 21/13 A2992 RMK A01 T02060126  RH  062%=      5-min Rain = 0
KMNS 191320Z 23007KT 21/13 A2992 RMK A01 T02090127  RH  062%=      5-min Rain = 0
KMNS 191325Z 23008KT 21/13 A2992 RMK A01 T02110126  RH  061%=      5-min Rain = 0
KMNS 191330Z 23008KT 21/13 A2993 RMK A01 T02120127  RH  061%=      5-min Rain = 0
KMNS 191335Z 23008KT 21/13 A2993 RMK A01 T02140127  RH  060%=      5-min Rain = 0
KMNS 191340Z 23009KT 21/13 A2993 RMK A01 T02140127  RH  060%=      5-min Rain = 0
KMNS 191345Z 23009KT 22/13 A2993 RMK A01 T02160128  RH  060%=      5-min Rain = 0
KMNS 191350Z 22008KT 22/13 A2992 RMK A01 T02180128  RH  059%=      5-min Rain = 0
KMNS 191355Z 23007KT 22/13 A2993 RMK A01 T02210130  RH  059%=      5-min Rain = 0
KMNS 191400Z 23006KT 22/13 A2993 RMK A01 T02220129  RH  058%=      5-min Rain = 0
KMNS 191405Z 24005KT 23/13 A2993 RMK A01 T02250130  RH  057%=      5-min Rain = 0
KMNS 191410Z 26005KT 23/13 A2994 RMK A01 T02270131  RH  057%=      5-min Rain = 0
KMNS 191415Z 24006KT 23/13 A2993 RMK A01 T02280131  RH  057%=      5-min Rain = 0
KMNS 191420Z 24007KT 23/13 A2993 RMK A01 T02310133  RH  056%=      5-min Rain = 0
KMNS 191425Z 25006KT 23/14 A2994 RMK A01 T02340136  RH  056%=      5-min Rain = 0
KMNS 191430Z 28007KT 24/13 A2994 RMK A01 T02380133  RH  054%=      5-min Rain = 0
KMNS 191435Z 27007KT 24/13 A2994 RMK A01 T02390132  RH  053%=      5-min Rain = 0
KMNS 191440Z 27005KT 24/14 A2994 RMK A01 T02400135  RH  054%=      5-min Rain = 0
KMNS 191445Z 28004KT 24/14 A2994 RMK A01 T02430137  RH  054%=      5-min Rain = 0
KMNS 191450Z 27006KT 25/14 A2994 RMK A01 T02490135  RH  051%=      5-min Rain = 0
KMNS 191455Z 26007KT 25/13 A2994 RMK A01 T02520134  RH  050%=      5-min Rain = 0
KMNS 191500Z 27008KT 26/14 A2993 RMK A01 T02550135  RH  050%=      5-min Rain = 0
KMNS 191505Z 26008KT 26/14 A2993 RMK A01 T02560135  RH  049%=      5-min Rain = 0
KMNS 191510Z 26008KT 26/14 A2993 RMK A01 T02590137  RH  049%=      5-min Rain = 0
KMNS 191515Z 27008KT 26/13 A2993 RMK A01 T02620134  RH  047%=      5-min Rain = 0
KMNS 191520Z 29008KT 26/14 A2994 RMK A01 T02620137  RH  048%=      5-min Rain = 0
KMNS 191525Z 30009KT 26/14 A2994 RMK A01 T02620136  RH  048%=      5-min Rain = 0
KMNS 191530Z 31009KT 26/13 A2994 RMK A01 T02620133  RH  047%=      5-min Rain = 0
KMNS 191535Z 32008KT 26/14 A2994 RMK A01 T02590140  RH  050%=      5-min Rain = 0
KMNS 191540Z 34008KT 26/14 A2994 RMK A01 T02590144  RH  051%=      5-min Rain = 0
KMNS 191545Z 35011KT 25/15 A2994 RMK A01 T02530145  RH  053%=      5-min Rain = 0
KMNS 191550Z 35011KT 25/15 A2994 RMK A01 T02490146  RH  055%=      5-min Rain = 0
KMNS 191555Z 36009KT 25/14 A2994 RMK A01 T02490143  RH  054%=      5-min Rain = 0
KMNS 191600Z 35008KT 25/14 A2994 RMK A01 T02520141  RH  052%=      5-min Rain = 0
KMNS 191605Z 34010KT 26/14 A2994 RMK A01 T02570136  RH  049%=      5-min Rain = 0
KMNS 191610Z 33010KT 26/14 A2994 RMK A01 T02600138  RH  049%=      5-min Rain = 0
KMNS 191615Z 33012KT 26/13 A2994 RMK A01 T02590133  RH  048%=      5-min Rain = 0
KMNS 191620Z 33011KT 26/13 A2994 RMK A01 T02600129  RH  046%=      5-min Rain = 0
KMNS 191625Z 33011G16KT 26/13 A2994 RMK A01 T02630126  RH  044%=      5-min Rain = 0
KMNS 191630Z 32012KT 27/13 A2994 RMK A01 T02670126  RH  043%=      5-min Rain = 0
KMNS 191635Z 31011G16KT 27/12 A2994 RMK A01 T02690118  RH  040%=      5-min Rain = 0
KMNS 191640Z 33012KT 27/12 A2994 RMK A01 T02690122  RH  042%=      5-min Rain = 0
KMNS 191645Z 32013KT 27/12 A2994 RMK A01 T02730115  RH  039%=      5-min Rain = 0
KMNS 191650Z 31012G17KT 28/11 A2995 RMK A01 T02750114  RH  038%=      5-min Rain = 0
KMNS 191655Z 33013KT 28/12 A2995 RMK A01 T02760118  RH  039%=      5-min Rain = 0
KMNS 191700Z 32012G17KT 28/11 A2995 RMK A01 T02770113  RH  037%=      5-min Rain = 0
KMNS 191705Z 32012KT 28/12 A2995 RMK A01 T02780118  RH  038%=      5-min Rain = 0
KMNS 191710Z 31012KT 28/11 A2995 RMK A01 T02820110  RH  036%=      5-min Rain = 0
KMNS 191715Z 32010G17KT 29/12 A2995 RMK A01 T02850121  RH  038%=      5-min Rain = 0
KMNS 191720Z 33012G17KT 28/12 A2995 RMK A01 T02830117  RH  037%=      5-min Rain = 0
KMNS 191725Z 32013KT 28/12 A2995 RMK A01 T02830120  RH  038%=      5-min Rain = 0
KMNS 191730Z 34010G15KT 29/13 A2995 RMK A01 T02850125  RH  039%=      5-min Rain = 0
KMNS 191735Z 34009KT 28/13 A2994 RMK A01 T02820132  RH  041%=      5-min Rain = 0
KMNS 191740Z 32009G14KT 29/13 A2994 RMK A01 T02860129  RH  039%=      5-min Rain = 0
KMNS 191745Z 34010G15KT 29/14 A2994 RMK A01 T02850135  RH  041%=      5-min Rain = 0
KMNS 191750Z 33009G14KT 29/13 A2994 RMK A01 T02870132  RH  040%=      5-min Rain = 0
KMNS 191755Z 35011KT 29/13 A2994 RMK A01 T02870129  RH  040%=      5-min Rain = 0
KMNS 191800Z 34007KT 29/12 A2994 RMK A01 T02880123  RH  038%=      5-min Rain = 0
KMNS 191805Z 31009G14KT 29/12 A2994 RMK A01 T02920119  RH  036%=      5-min Rain = 0
KMNS 191810Z 32010KT 30/12 A2994 RMK A01 T02950120  RH  035%=      5-min Rain = 0
KMNS 191815Z 33009G14KT 30/12 A2993 RMK A01 T02950118  RH  035%=      5-min Rain = 0
KMNS 191820Z 34007G12KT 30/12 A2993 RMK A01 T02960119  RH  035%=      5-min Rain = 0
KMNS 191825Z 31009KT 30/12 A2993 RMK A01 T02990119  RH  034%=      5-min Rain = 0
KMNS 191830Z 32010KT 30/11 A2993 RMK A01 T03010114  RH  033%=      5-min Rain = 0
KMNS 191835Z 33006KT 30/11 A2993 RMK A01 T02980108  RH  032%=      5-min Rain = 0
KMNS 191840Z 33007G12KT 30/11 A2993 RMK A01 T03000114  RH  033%=      5-min Rain = 0
KMNS 191845Z 32006KT 30/11 A2993 RMK A01 T03040106  RH  030%=      5-min Rain = 0
KMNS 191850Z 30004G10KT 31/10 A2992 RMK A01 T03070100  RH  029%=      5-min Rain = 0
KMNS 191855Z 32005G11KT 31/10 A2992 RMK A01 T03120103  RH  028%=      5-min Rain = 0
KMNS 191900Z 30008G15KT 32/09 A2992 RMK A01 T03170089  RH  025%=      5-min Rain = 0
KMNS 191905Z 27008KT 32/09 A2992 RMK A01 T03180086  RH  024%=      5-min Rain = 0
KMNS 191910Z 31007G15KT 31/08 A2991 RMK A01 T03140084  RH  025%=      5-min Rain = 0
KMNS 191915Z 36005KT 32/09 A2991 RMK A01 T03180087  RH  025%=      5-min Rain = 0
KMNS 191920Z 29007G18KT 32/07 A2991 RMK A01 T03200066  RH  021%=      5-min Rain = 0
KMNS 191925Z 28012G18KT 33/05 A2991 RMK A01 T03270049  RH  018%=      5-min Rain = 0
KMNS 191930Z 29016G21KT 33/05 A299 RMK A01 T03290048  RH  018%=      5-min Rain = 0
KMNS 191935Z 28012G19KT 33/05 A299 RMK A01 T03310051  RH  018%=      5-min Rain = 0
KMNS 191940Z 28009KT 33/04 A299 RMK A01 T03290038  RH  016%=      5-min Rain = 0
KMNS 191945Z 29011G19KT 33/05 A299 RMK A01 T03300053  RH  018%=      5-min Rain = 0
KMNS 191950Z 30014G19KT 33/05 A299 RMK A01 T03300050  RH  018%=      5-min Rain = 0
KMNS 191955Z 29013G20KT 33/04 A299 RMK A01 T03310042  RH  017%=      5-min Rain = 0
KMNS 192000Z 31015KT 33/04 A299 RMK A01 T03300044  RH  017%=      5-min Rain = 0
KMNS 192005Z 29013KT 33/04 A299 RMK A01 T03310044  RH  017%=      5-min Rain = 0
KMNS 192010Z 28013G20KT 33/04 A299 RMK A01 T03320036  RH  016%=      5-min Rain = 0
KMNS 192015Z 28012G18KT 33/03 A299 RMK A01 T03300032  RH  016%=      5-min Rain = 0
KMNS 192020Z 27010KT 33/04 A2989 RMK A01 T03330036  RH  016%=      5-min Rain = 0
KMNS 192025Z 30015KT 33/04 A2989 RMK A01 T03340042  RH  016%=      5-min Rain = 0
KMNS 192030Z 28011G19KT 33/04 A2989 RMK A01 T03320036  RH  016%=      5-min Rain = 0
KMNS 192035Z 27009KT 33/03 A2989 RMK A01 T03340033  RH  015%=      5-min Rain = 0
KMNS 192040Z 27012G20KT 33/02 A2989 RMK A01 T03340023  RH  014%=      5-min Rain = 0
KMNS 192045Z 29010G20KT 33/03 A2989 RMK A01 T03330033  RH  015%=      5-min Rain = 0
KMNS 192050Z 29010KT 34/04 A2989 RMK A01 T03350040  RH  016%=      5-min Rain = 0
KMNS 192055Z 30013G21KT 34/04 A2988 RMK A01 T03370043  RH  016%=      5-min Rain = 0
KMNS 192100Z 27012G17KT 34/03 A2988 RMK A01 T03370034  RH  015%=      5-min Rain = 0
KMNS 192105Z 27010G16KT 34/03 A2988 RMK A01 T03390033  RH  015%=      5-min Rain = 0
KMNS 192110Z 30011KT 34/04 A2988 RMK A01 T03390040  RH  016%=      5-min Rain = 0
KMNS 192115Z 30010KT 34/03 A2988 RMK A01 T03380032  RH  015%=      5-min Rain = 0
KMNS 192120Z 30014G21KT 34/03 A2987 RMK A01 T03400032  RH  015%=      5-min Rain = 0
KMNS 192125Z 30011G16KT 34/03 A2987 RMK A01 T03390034  RH  015%=      5-min Rain = 0
KMNS 192130Z 29008G13KT 34/04 A2987 RMK A01 T03430039  RH  015%=      5-min Rain = 0
KMNS 192135Z 27011G18KT 34/03 A2987 RMK A01 T03400025  RH  014%=      5-min Rain = 0
KMNS 192140Z 27008KT 34/03 A2987 RMK A01 T03420027  RH  014%=      5-min Rain = 0
KMNS 192145Z 28006G11KT 34/03 A2987 RMK A01 T03430027  RH  014%=      5-min Rain = 0
KMNS 192150Z 28008KT 34/03 A2986 RMK A01 T03400030  RH  014%=      5-min Rain = 0
KMNS 192155Z 30006G11KT 34/03 A2986 RMK A01 T03420033  RH  015%=      5-min Rain = 0
KMNS 192200Z 29011G26KT 34/03 A2986 RMK A01 T03420028  RH  014%=      5-min Rain = 0
KMNS 192205Z 27007G15KT 34/03 A2986 RMK A01 T03410031  RH  015%=      5-min Rain = 0
KMNS 192210Z 25009G16KT 34/02 A2986 RMK A01 T03420024  RH  014%=      5-min Rain = 0
KMNS 192215Z 26007G12KT 34/03 A2986 RMK A01 T03410028  RH  014%=      5-min Rain = 0
KMNS 192220Z 27005KT 34/02 A2985 RMK A01 T03430022  RH  014%=      5-min Rain = 0
KMNS 192225Z 30006G11KT 34/03 A2985 RMK A01 T03440028  RH  014%=      5-min Rain = 0
KMNS 192230Z 34008KT 34/03 A2985 RMK A01 T03420026  RH  014%=      5-min Rain = 0
KMNS 192235Z 34006G11KT 34/02 A2985 RMK A01 T03410021  RH  014%=      5-min Rain = 0
KMNS 192240Z 30004KT 34/03 A2985 RMK A01 T03440027  RH  014%=      5-min Rain = 0
KMNS 192245Z 29002KT 34/02 A2985 RMK A01 T03440018  RH  013%=      5-min Rain = 0
KMNS 192250Z 27005KT 34/02 A2985 RMK A01 T03380023  RH  014%=      5-min Rain = 0
KMNS 192255Z 28006KT 33/03 A2984 RMK A01 T03280033  RH  016%=      5-min Rain = 0
KMNS 192300Z 29005KT 33/03 A2984 RMK A01 T03330026  RH  015%=      5-min Rain = 0
KMNS 192305Z 31007KT 33/04 A2984 RMK A01 T03290042  RH  017%=      5-min Rain = 0
KMNS 192310Z 31007KT 33/05 A2984 RMK A01 T03280045  RH  017%=      5-min Rain = 0
KMNS 192315Z 30005KT 32/06 A2984 RMK A01 T03230063  RH  020%=      5-min Rain = 0
KMNS 192320Z 31005KT 33/06 A2984 RMK A01 T03250061  RH  020%=      5-min Rain = 0
KMNS 192325Z 32004KT 33/06 A2984 RMK A01 T03260055  RH  019%=      5-min Rain = 0
KMNS 192330Z 32004KT 33/06 A2983 RMK A01 T03300064  RH  020%=      5-min Rain = 0
KMNS 192335Z 31002KT 34/03 A2983 RMK A01 T03440027  RH  014%=      5-min Rain = 0
KMNS 192340Z 32003KT 35/03 A2983 RMK A01 T03490026  RH  013%=      5-min Rain = 0
KMNS 192345Z 27004KT 35/02 A2983 RMK A01 T03490022  RH  013%=      5-min Rain = 0
KMNS 192350Z 29003KT 34/03 A2983 RMK A01 T03440028  RH  014%=      5-min Rain = 0
KMNS 192355Z 29004KT 34/03 A2983 RMK A01 T03360028  RH  015%=      5-min Rain = 0
KMNS 200000Z 29004KT 33/05 A2982 RMK A01 T03310046  RH  017%=      5-min Rain = 0
KMNS 200005Z 28007KT 32/03 A2982 RMK A01 T03240034  RH  016%=      5-min Rain = 0
KMNS 200010Z 29006KT 33/04 A2982 RMK A01 T03250042  RH  017%=      5-min Rain = 0
KMNS 200015Z 31005KT 32/06 A2982 RMK A01 T03230064  RH  020%=      5-min Rain = 0
KMNS 200020Z 08008KT 32/09 A2982 RMK A01 T03200085  RH  024%=      5-min Rain = 0
KMNS 200025Z 10008KT 32/10 A2982 RMK A01 T03160098  RH  027%=      5-min Rain = 0
KMNS 200030Z 09008KT 32/10 A2982 RMK A01 T03160102  RH  028%=      5-min Rain = 0
KMNS 200035Z 09010KT 32/10 A2982 RMK A01 T03180099  RH  027%=      5-min Rain = 0
KMNS 200040Z 09012KT 32/09 A2982 RMK A01 T03160093  RH  026%=      5-min Rain = 0
KMNS 200045Z 10011KT 32/08 A2982 RMK A01 T03170080  RH  023%=      5-min Rain = 0
KMNS 200050Z 10011KT 32/09 A2982 RMK A01 T03170090  RH  025%=      5-min Rain = 0
KMNS 200055Z 09013KT 32/08 A2982 RMK A01 T03150079  RH  024%=      5-min Rain = 0
KMNS 200100Z 08012KT 31/08 A2982 RMK A01 T03130078  RH  024%=      5-min Rain = 0
KMNS 200105Z 08009KT 31/09 A2982 RMK A01 T03080093  RH  027%=      5-min Rain = 0
KMNS 200110Z 09007KT 31/09 A2982 RMK A01 T03060093  RH  028%=      5-min Rain = 0
KMNS 200115Z 09009KT 30/09 A2982 RMK A01 T03010094  RH  028%=      5-min Rain = 0
KMNS 200120Z 09010KT 30/09 A2982 RMK A01 T03010091  RH  028%=      5-min Rain = 0
KMNS 200125Z 09011KT 30/09 A2982 RMK A01 T03000093  RH  028%=      5-min Rain = 0
KMNS 200130Z 08008KT 30/10 A2982 RMK A01 T02970100  RH  030%=      5-min Rain = 0
KMNS 200135Z 07008KT 30/10 A2983 RMK A01 T02970101  RH  031%=      5-min Rain = 0
KMNS 200140Z 08009KT 29/11 A2983 RMK A01 T02920105  RH  032%=      5-min Rain = 0
KMNS 200145Z 09006KT 29/09 A2983 RMK A01 T02890093  RH  030%=      5-min Rain = 0
KMNS 200150Z 04003KT 30/09 A2983 RMK A01 T02960089  RH  028%=      5-min Rain = 0
KMNS 200155Z 10008KT 29/09 A2983 RMK A01 T02880092  RH  030%=      5-min Rain = 0
KMNS 200200Z 11006KT 28/09 A2983 RMK A01 T02810094  RH  032%=      5-min Rain = 0
KMNS 200205Z 10006KT 28/10 A2983 RMK A01 T02750100  RH  035%=      5-min Rain = 0
KMNS 200210Z 09005KT 28/10 A2983 RMK A01 T02760102  RH  035%=      5-min Rain = 0
KMNS 200215Z 11007KT 26/11 A2984 RMK A01 T02630109  RH  039%=      5-min Rain = 0
KMNS 200220Z 10005KT 26/11 A2984 RMK A01 T02600109  RH  040%=      5-min Rain = 0
KMNS 200225Z 09006KT 26/11 A2984 RMK A01 T02560112  RH  042%=      5-min Rain = 0
KMNS 200230Z 09005KT 26/11 A2984 RMK A01 T02560111  RH  042%=      5-min Rain = 0
KMNS 200235Z 11005KT 25/12 A2984 RMK A01 T02520117  RH  045%=      5-min Rain = 0
KMNS 200240Z 10004KT 25/12 A2984 RMK A01 T02470115  RH  045%=      5-min Rain = 0
KMNS 200245Z 10004KT 25/11 A2984 RMK A01 T02530110  RH  042%=      5-min Rain = 0
KMNS 200250Z 10004KT 26/12 A2985 RMK A01 T02550115  RH  043%=      5-min Rain = 0
KMNS 200255Z 09005KT 25/13 A2985 RMK A01 T02490126  RH  048%=      5-min Rain = 0
KMNS 200300Z 10006KT 24/13 A2985 RMK A01 T02410126  RH  050%=      5-min Rain = 0
KMNS 200305Z 11006KT 23/13 A2985 RMK A01 T02320125  RH  053%=      5-min Rain = 0
KMNS 200310Z 11006KT 23/12 A2985 RMK A01 T02330123  RH  052%=      5-min Rain = 0
KMNS 200315Z 11006KT 23/13 A2985 RMK A01 T02310127  RH  054%=      5-min Rain = 0
KMNS 200320Z 11006KT 23/13 A2986 RMK A01 T02290125  RH  054%=      5-min Rain = 0
KMNS 200325Z 10006KT 23/12 A2986 RMK A01 T02310122  RH  052%=      5-min Rain = 0
KMNS 200330Z 11007KT 23/12 A2986 RMK A01 T02310122  RH  052%=      5-min Rain = 0
KMNS 200335Z 11007KT 23/13 A2986 RMK A01 T02250125  RH  055%=      5-min Rain = 0
KMNS 200340Z 13007KT 23/12 A2986 RMK A01 T02290121  RH  052%=      5-min Rain = 0
KMNS 200345Z 13007KT 23/12 A2986 RMK A01 T02330119  RH  051%=      5-min Rain = 0
KMNS 200350Z 13007KT 23/12 A2986 RMK A01 T02340119  RH  050%=      5-min Rain = 0
KMNS 200355Z 13007KT 23/12 A2986 RMK A01 T02280124  RH  054%=      5-min Rain = 0
KMNS 200400Z 12007KT 22/13 A2986 RMK A01 T02190130  RH  059%=      5-min Rain = 0
KMNS 200405Z 12007KT 22/13 A2987 RMK A01 T02200128  RH  058%=      5-min Rain = 0
KMNS 200410Z 11006KT 22/13 A2987 RMK A01 T02150128  RH  060%=      5-min Rain = 0
KMNS 200415Z 11005KT 22/13 A2987 RMK A01 T02150125  RH  059%=      5-min Rain = 0
KMNS 200420Z 12006KT 22/13 A2987 RMK A01 T02170125  RH  058%=      5-min Rain = 0
KMNS 200425Z 11006KT 22/13 A2987 RMK A01 T02150125  RH  058%=      5-min Rain = 0
KMNS 200430Z 10006KT 22/13 A2987 RMK A01 T02160125  RH  059%=      5-min Rain = 0
KMNS 200435Z 11007KT 21/13 A2987 RMK A01 T02130126  RH  060%=      5-min Rain = 0
KMNS 200440Z 10009KT 22/12 A2987 RMK A01 T02160124  RH  058%=      5-min Rain = 0
KMNS 200445Z 09009KT 22/12 A2988 RMK A01 T02220122  RH  055%=      5-min Rain = 0
KMNS 200450Z 10009KT 22/12 A2988 RMK A01 T02230123  RH  055%=      5-min Rain = 0
KMNS 200455Z 11010KT 23/12 A2988 RMK A01 T02270121  RH  053%=      5-min Rain = 0

Page generated in 0.0091 seconds.